Low Moor, Iowa
Current Conditions -  °F | °C
As of 8:35 PM on Sunday 21 Dec 2014 (Local Time) from KCWI Reporting Station
Overcast Overcast  
Wind Chill: 23°   Ceiling: 4100
Heat Index: 34°   Visibility: 7mi
Dew Point: 28°   Wind: 17mph
Humidity: 81%   Direction: 160°SSE
Pressure: 29.98"   Gusts: NA
Location:  41.8°N, 90.35°W
Report Text: KCWI 220235Z AUTO 16015KT 7SM OVC041 01/M02 A2998 RMK AO1
Loading
Personal Weather Stations






























Interactive Weather Map New forecast layout! Learn more

10-Day Weather Forecast

Advertisements
Track Severe Weather on mobile